Terminal Aerodrome Forecast
Issued by NWS

Home | Current Version | Previous Version | Text Only | Print | Product List | Glossary On
Versions: 1 2 3 4 5 6 7 8 9 10 11 12 13 14 15 16 17 18 19 20 21 22 23 24
000
FTUS41 KCTP 270939 AAB
TAFLNS
TAF AMD
KLNS 270939Z 2710/2806 09005KT 4SM -SHRA BR OVC003
     FM271600 22004KT P6SM BKN010
     FM272000 25005KT P6SM SCT025 BKN050
     FM280300 11003KT 4SM BR OVC050=

USA.gov is the U.S. government's official web portal to all federal, state and local government web resources and services.